createdAt,value
2017-06-18T00:00:56.403Z,16.20
2017-06-18T00:03:23.951Z,16.20
2017-06-18T00:05:52.247Z,16.20
2017-06-18T00:08:19.786Z,16.20
2017-06-18T00:10:48.071Z,16.20
2017-06-18T00:13:16.391Z,16.20
2017-06-18T00:15:44.679Z,16.20
2017-06-18T00:18:12.989Z,16.20
2017-06-18T00:20:40.510Z,16.20
2017-06-18T00:23:08.803Z,16.20
2017-06-18T00:25:36.346Z,16.20
2017-06-18T00:28:04.638Z,16.20
2017-06-18T00:30:32.950Z,16.10
2017-06-18T00:33:00.475Z,16.10
2017-06-18T00:35:28.783Z,16.10
2017-06-18T00:37:56.304Z,16.10
2017-06-18T00:40:23.859Z,16.20
2017-06-18T00:42:52.147Z,16.20
2017-06-18T00:45:19.691Z,16.20
2017-06-18T00:47:47.234Z,16.20
2017-06-18T00:50:14.762Z,16.10
2017-06-18T00:52:42.299Z,16.00
2017-06-18T00:55:09.824Z,15.90
2017-06-18T00:57:37.384Z,15.80
2017-06-18T01:00:04.906Z,15.70
2017-06-18T01:02:32.431Z,15.70
2017-06-18T01:04:59.975Z,15.80
2017-06-18T01:07:27.498Z,15.80
2017-06-18T01:09:55.042Z,15.90
2017-06-18T01:12:23.331Z,15.90
2017-06-18T01:14:50.884Z,15.90
2017-06-18T01:17:18.406Z,15.90
2017-06-18T01:19:45.956Z,15.80
2017-06-18T01:22:14.243Z,15.70
2017-06-18T01:24:41.774Z,15.60
2017-06-18T01:27:09.316Z,15.60
2017-06-18T01:29:36.852Z,15.60
2017-06-18T01:32:04.393Z,15.60
2017-06-18T01:34:31.918Z,15.60
2017-06-18T01:37:00.223Z,15.60
2017-06-18T01:39:27.746Z,15.50
2017-06-18T01:41:55.315Z,15.60
2017-06-18T01:44:23.603Z,15.70
2017-06-18T01:46:51.124Z,15.70
2017-06-18T01:49:18.674Z,15.70
2017-06-18T01:51:46.208Z,15.80
2017-06-18T01:54:13.752Z,15.80
2017-06-18T01:56:41.276Z,15.80
2017-06-18T01:59:08.835Z,15.80
2017-06-18T02:01:37.127Z,15.70
2017-06-18T02:04:04.651Z,15.70
2017-06-18T02:06:32.196Z,15.70
2017-06-18T02:08:59.720Z,15.70
2017-06-18T02:11:28.030Z,15.70
2017-06-18T02:13:55.559Z,15.70
2017-06-18T02:16:23.107Z,15.80
2017-06-18T02:18:51.395Z,15.80
2017-06-18T02:21:18.941Z,15.80
2017-06-18T02:23:47.230Z,15.80
2017-06-18T02:26:14.789Z,15.80
2017-06-18T02:28:42.316Z,15.80
2017-06-18T02:31:10.600Z,15.70
2017-06-18T02:33:38.143Z,15.70
2017-06-18T02:36:05.672Z,15.70
2017-06-18T02:38:33.218Z,15.60
2017-06-18T02:41:00.743Z,15.60
2017-06-18T02:43:28.282Z,15.50
2017-06-18T02:45:55.808Z,15.50
2017-06-18T02:48:23.364Z,15.40
2017-06-18T02:50:50.888Z,15.20
2017-06-18T02:53:18.410Z,15.00
2017-06-18T02:55:46.720Z,14.80
2017-06-18T02:58:15.012Z,14.70
2017-06-18T03:00:42.555Z,14.60
2017-06-18T03:03:10.842Z,14.50
2017-06-18T03:05:38.398Z,14.50
2017-06-18T03:08:05.921Z,14.40
2017-06-18T03:10:33.443Z,14.30
2017-06-18T03:13:00.992Z,14.20
2017-06-18T03:15:28.520Z,14.20
2017-06-18T03:17:56.064Z,14.10
2017-06-18T03:20:24.354Z,14.10
2017-06-18T03:23:08.740Z,14.10
2017-06-18T03:25:36.262Z,14.00
2017-06-18T03:28:03.802Z,14.00
2017-06-18T03:30:31.330Z,14.00
2017-06-18T03:32:59.634Z,14.00
2017-06-18T03:35:27.158Z,14.00
2017-06-18T03:37:54.871Z,14.00
2017-06-18T03:40:22.390Z,14.00
2017-06-18T03:42:49.912Z,14.10
2017-06-18T03:45:17.450Z,14.20
2017-06-18T03:47:44.977Z,14.30
2017-06-18T03:50:12.555Z,14.30
2017-06-18T03:52:40.075Z,14.40
2017-06-18T03:55:07.614Z,14.40
2017-06-18T03:57:35.134Z,14.30
2017-06-18T04:00:02.678Z,14.20
2017-06-18T04:02:30.195Z,14.20
2017-06-18T04:04:57.756Z,14.30
2017-06-18T04:07:26.045Z,14.40
2017-06-18T04:09:53.565Z,14.40
2017-06-18T04:12:21.113Z,14.40
2017-06-18T04:14:48.638Z,14.50
2017-06-18T04:17:16.178Z,14.50
2017-06-18T04:19:43.700Z,14.50
2017-06-18T04:22:11.243Z,14.60
2017-06-18T04:24:38.763Z,14.60
2017-06-18T04:27:06.316Z,14.80
2017-06-18T04:29:33.834Z,14.90
2017-06-18T04:32:02.118Z,14.90
2017-06-18T04:34:29.655Z,14.90
2017-06-18T04:36:57.940Z,15.20
2017-06-18T04:39:26.238Z,15.70
2017-06-18T04:41:53.757Z,15.70
2017-06-18T04:44:21.295Z,16.40
2017-06-18T04:46:48.819Z,17.00
2017-06-18T04:49:16.363Z,17.40
2017-06-18T04:51:43.879Z,17.70
2017-06-18T04:54:11.418Z,17.90
2017-06-18T04:56:38.942Z,18.00
2017-06-18T04:59:06.464Z,18.30
2017-06-18T05:01:34.775Z,19.20
2017-06-18T05:04:02.296Z,19.10
2017-06-18T05:06:29.843Z,19.10
2017-06-18T05:08:57.358Z,18.90
2017-06-18T05:11:25.658Z,18.70
2017-06-18T05:13:53.179Z,18.70
2017-06-18T05:16:20.722Z,19.20
2017-06-18T05:18:48.242Z,19.80
2017-06-18T05:21:15.798Z,20.10
2017-06-18T05:23:43.314Z,20.40
2017-06-18T05:26:10.834Z,20.60
2017-06-18T05:28:38.370Z,21.00
2017-06-18T05:31:05.895Z,21.90
2017-06-18T05:33:34.198Z,23.70
2017-06-18T05:36:01.722Z,23.70
2017-06-18T05:38:29.258Z,24.40
2017-06-18T05:40:56.775Z,25.10
2017-06-18T05:43:24.330Z,25.80
2017-06-18T05:45:51.854Z,26.00
2017-06-18T05:48:20.142Z,26.90
2017-06-18T05:50:47.690Z,26.90
2017-06-18T05:53:15.220Z,27.40
2017-06-18T05:55:42.762Z,27.70
2017-06-18T05:58:11.053Z,27.60
2017-06-18T06:00:39.358Z,27.60
2017-06-18T06:03:06.876Z,27.50
2017-06-18T06:05:34.431Z,28.00
2017-06-18T06:08:01.950Z,28.50
2017-06-18T06:10:29.475Z,28.60
2017-06-18T06:12:57.015Z,28.30
2017-06-18T06:15:24.538Z,28.00
2017-06-18T06:17:52.083Z,27.70
2017-06-18T06:20:19.608Z,27.90
2017-06-18T06:22:47.150Z,28.10
2017-06-18T06:25:14.674Z,28.40
2017-06-18T06:27:43.028Z,28.80
2017-06-18T06:30:10.551Z,28.80
2017-06-18T06:32:38.106Z,29.40
2017-06-18T06:35:05.618Z,29.40
2017-06-18T06:37:33.143Z,29.20
2017-06-18T06:40:00.685Z,28.90
2017-06-18T06:42:28.202Z,28.50
2017-06-18T06:44:56.519Z,28.60
2017-06-18T06:47:24.038Z,28.60
2017-06-18T06:49:51.579Z,28.90
2017-06-18T06:52:19.867Z,29.80
2017-06-18T06:54:47.409Z,29.80
2017-06-18T06:57:14.949Z,29.20
2017-06-18T06:59:42.502Z,28.20
2017-06-18T07:02:10.027Z,26.40
2017-06-18T07:04:37.554Z,24.90
2017-06-18T07:07:05.101Z,24.30
2017-06-18T07:09:32.622Z,25.10
2017-06-18T07:12:00.162Z,26.40
2017-06-18T07:14:27.679Z,27.30
2017-06-18T07:17:31.510Z,26.30
2017-06-18T07:19:59.034Z,25.50
2017-06-18T07:22:26.566Z,26.10
2017-06-18T07:24:54.103Z,26.00
2017-06-18T07:27:21.625Z,25.10
2017-06-18T07:29:49.934Z,26.10
2017-06-18T07:32:17.460Z,26.10
2017-06-18T07:34:45.770Z,27.70
2017-06-18T07:37:13.290Z,27.60
2017-06-18T07:39:40.846Z,28.10
2017-06-18T07:42:10.522Z,28.80
2017-06-18T07:44:38.899Z,29.40
2017-06-18T07:47:07.399Z,29.10
2017-06-18T07:49:34.921Z,29.00
2017-06-18T07:52:02.463Z,28.60
2017-06-18T07:54:29.986Z,28.60
2017-06-18T07:56:58.071Z,28.80
2017-06-18T07:59:26.362Z,28.40
2017-06-18T08:01:54.679Z,28.80
2017-06-18T08:04:22.207Z,28.90
2017-06-18T08:06:49.728Z,28.70
2017-06-18T08:09:17.271Z,28.60
2017-06-18T08:11:44.786Z,29.10
2017-06-18T08:14:12.330Z,28.80
2017-06-18T08:16:39.856Z,28.30
2017-06-18T08:19:07.397Z,28.20
2017-06-18T08:21:34.923Z,28.30
2017-06-18T08:24:02.503Z,28.70
2017-06-18T08:26:30.023Z,28.80
2017-06-18T08:28:57.567Z,28.80
2017-06-18T08:31:25.846Z,27.90
2017-06-18T08:33:54.166Z,27.40
2017-06-18T08:36:21.683Z,27.40
2017-06-18T08:38:49.197Z,27.00
2017-06-18T08:41:17.506Z,26.50
2017-06-18T08:43:45.027Z,26.40
2017-06-18T08:46:12.566Z,26.60
2017-06-18T08:48:40.854Z,26.80
2017-06-18T08:51:08.406Z,26.90
2017-06-18T08:53:35.926Z,26.80
2017-06-18T08:56:04.211Z,26.80
2017-06-18T08:58:31.751Z,26.80
2017-06-18T09:00:59.270Z,27.30
2017-06-18T09:03:26.806Z,28.30
2017-06-18T09:05:54.332Z,28.80
2017-06-18T09:08:21.879Z,28.40
2017-06-18T09:10:49.403Z,28.00
2017-06-18T09:13:16.943Z,27.50
2017-06-18T09:15:44.464Z,27.00
2017-06-18T09:18:12.019Z,26.70
2017-06-18T09:20:39.542Z,26.40
2017-06-18T09:23:07.058Z,26.20
2017-06-18T09:25:34.603Z,26.30
2017-06-18T09:28:02.122Z,26.40
2017-06-18T09:30:29.663Z,26.20
2017-06-18T09:32:57.957Z,25.70
2017-06-18T09:35:25.503Z,25.70
2017-06-18T09:37:53.024Z,26.00
2017-06-18T09:40:20.591Z,26.40
2017-06-18T09:42:48.109Z,26.90
2017-06-18T09:45:16.399Z,26.80
2017-06-18T09:47:43.940Z,26.80
2017-06-18T09:50:11.463Z,27.30
2017-06-18T09:52:39.006Z,27.70
2017-06-18T09:55:07.296Z,27.20
2017-06-18T09:57:34.839Z,27.20
2017-06-18T10:00:03.132Z,27.30
2017-06-18T10:02:31.459Z,27.00
2017-06-18T10:04:58.986Z,27.00
2017-06-18T10:07:26.505Z,26.80
2017-06-18T10:09:54.046Z,27.00
2017-06-18T10:12:21.567Z,27.50
2017-06-18T10:14:49.142Z,27.70
2017-06-18T10:17:16.663Z,27.50
2017-06-18T10:19:44.204Z,27.00
2017-06-18T10:22:13.630Z,26.80
2017-06-18T10:24:41.167Z,26.80
2017-06-18T10:27:08.691Z,26.80
2017-06-18T10:29:36.994Z,27.00
2017-06-18T10:32:04.518Z,27.00
2017-06-18T10:34:32.074Z,27.40
2017-06-18T10:37:00.359Z,27.90
2017-06-18T10:39:27.883Z,27.90
2017-06-18T10:41:56.199Z,28.50
2017-06-18T10:44:24.490Z,28.00
2017-06-18T10:46:52.030Z,27.90
2017-06-18T10:49:20.319Z,27.50
2017-06-18T10:51:47.875Z,27.40
2017-06-18T10:54:16.158Z,28.40
2017-06-18T10:56:43.682Z,28.40
2017-06-18T10:59:11.228Z,29.10
2017-06-18T11:01:38.750Z,29.90
2017-06-18T11:04:06.291Z,30.50
2017-06-18T11:06:34.575Z,31.20
2017-06-18T11:09:02.883Z,31.50
2017-06-18T11:11:30.408Z,31.50
2017-06-18T11:13:57.930Z,31.90
2017-06-18T11:16:25.486Z,31.70
2017-06-18T11:18:53.012Z,31.50
2017-06-18T11:21:20.554Z,31.00
2017-06-18T11:23:48.071Z,30.50
2017-06-18T11:26:15.614Z,30.50
2017-06-18T11:28:43.138Z,30.60
2017-06-18T11:31:11.431Z,31.10
2017-06-18T11:36:13.476Z,31.40
2017-06-18T11:38:41.786Z,31.00
2017-06-18T11:41:09.309Z,31.10
2017-06-18T11:43:37.614Z,31.40
2017-06-18T11:46:05.138Z,31.40
2017-06-18T11:48:33.467Z,31.10
2017-06-18T11:51:01.000Z,31.10
2017-06-18T11:53:29.282Z,30.30
2017-06-18T11:55:57.592Z,30.10
2017-06-18T11:58:25.883Z,30.10
2017-06-18T12:00:53.431Z,30.00
2017-06-18T12:03:21.722Z,29.30
2017-06-18T12:05:49.259Z,29.30
2017-06-18T12:08:16.783Z,29.10
2017-06-18T12:10:45.091Z,29.90
2017-06-18T12:13:13.383Z,30.30
2017-06-18T12:15:40.936Z,30.30
2017-06-18T12:18:08.464Z,30.80
2017-06-18T12:20:35.987Z,30.90
2017-06-18T12:23:03.535Z,30.80
2017-06-18T12:25:31.062Z,30.40
2017-06-18T12:27:58.613Z,29.90
2017-06-18T12:30:26.905Z,30.20
2017-06-18T12:32:55.251Z,30.50
2017-06-18T12:35:22.775Z,30.50
2017-06-18T12:37:50.298Z,30.30
2017-06-18T12:40:18.607Z,30.20
2017-06-18T12:42:46.122Z,30.20
2017-06-18T12:45:13.667Z,30.10
2017-06-18T12:47:41.955Z,30.50
2017-06-18T12:50:09.507Z,30.50
2017-06-18T12:52:37.027Z,30.80
2017-06-18T12:55:04.548Z,30.90
2017-06-18T12:57:32.286Z,30.90
2017-06-18T13:00:00.570Z,30.20
2017-06-18T13:02:28.107Z,30.20
2017-06-18T13:04:56.395Z,29.30
2017-06-18T13:07:24.715Z,29.10
2017-06-18T13:09:52.999Z,28.90
2017-06-18T13:12:20.522Z,28.90
2017-06-18T13:14:48.067Z,28.80
2017-06-18T13:17:15.595Z,28.50
2017-06-18T13:19:43.138Z,28.40
2017-06-18T13:22:10.664Z,28.00
2017-06-18T13:24:38.206Z,28.00
2017-06-18T13:27:05.722Z,28.10
2017-06-18T13:29:33.274Z,28.30
2017-06-18T13:32:00.798Z,28.40
2017-06-18T13:34:28.326Z,28.70
2017-06-18T13:36:55.866Z,29.10
2017-06-18T13:39:23.383Z,29.60
2017-06-18T13:41:50.931Z,30.00
2017-06-18T13:44:18.458Z,30.30
2017-06-18T13:46:46.002Z,30.50
2017-06-18T13:49:13.527Z,30.50
2017-06-18T13:51:41.086Z,30.40
2017-06-18T13:54:08.611Z,29.90
2017-06-18T13:56:36.901Z,29.50
2017-06-18T13:59:05.207Z,29.20
2017-06-18T14:01:33.495Z,28.90
2017-06-18T14:04:01.809Z,28.90
2017-06-18T14:06:29.334Z,28.90
2017-06-18T14:08:57.644Z,28.70
2017-06-18T14:11:25.169Z,28.70
2017-06-18T14:13:52.767Z,28.50
2017-06-18T14:16:20.290Z,28.50
2017-06-18T14:18:47.815Z,28.80
2017-06-18T14:21:16.122Z,29.10
2017-06-18T14:23:43.643Z,29.10
2017-06-18T14:26:11.947Z,29.30
2017-06-18T14:28:39.471Z,29.30
2017-06-18T14:31:07.795Z,29.50
2017-06-18T14:33:35.321Z,29.40
2017-06-18T14:36:02.843Z,29.60
2017-06-18T14:38:30.394Z,29.60
2017-06-18T14:40:57.918Z,29.60
2017-06-18T14:43:25.462Z,29.70
2017-06-18T14:45:52.986Z,29.90
2017-06-18T14:48:20.532Z,30.00
2017-06-18T14:50:48.056Z,29.80
2017-06-18T14:53:15.611Z,29.70
2017-06-18T14:55:43.141Z,29.70
2017-06-18T14:58:10.662Z,29.70
2017-06-18T15:00:38.203Z,29.60
2017-06-18T15:03:05.727Z,29.50
2017-06-18T15:05:34.040Z,29.40
2017-06-18T15:08:01.567Z,29.40
2017-06-18T15:10:29.106Z,29.20
2017-06-18T15:12:56.627Z,29.00
2017-06-18T15:15:24.189Z,28.80
2017-06-18T15:17:51.719Z,28.80
2017-06-18T15:20:20.007Z,29.10
2017-06-18T15:22:47.550Z,29.10
2017-06-18T15:25:15.071Z,29.10
2017-06-18T15:27:42.606Z,29.00
2017-06-18T15:30:10.897Z,28.50
2017-06-18T15:32:38.438Z,28.40
2017-06-18T15:35:05.959Z,28.30
2017-06-18T15:37:33.516Z,28.20
2017-06-18T15:40:01.041Z,27.90
2017-06-18T15:42:28.561Z,27.70
2017-06-18T15:44:56.105Z,27.60
2017-06-18T15:47:23.631Z,27.50
2017-06-18T15:49:51.170Z,27.30
2017-06-18T15:52:18.686Z,27.20
2017-06-18T15:54:46.227Z,27.10
2017-06-18T15:57:13.768Z,27.00
2017-06-18T15:59:41.321Z,27.00
2017-06-18T16:02:08.842Z,27.00
2017-06-18T16:04:36.362Z,27.00
2017-06-18T16:07:03.901Z,27.00
2017-06-18T16:09:31.423Z,27.00
2017-06-18T16:11:58.962Z,27.00
2017-06-18T16:14:26.491Z,26.90
2017-06-18T16:16:54.034Z,26.80
2017-06-18T16:19:21.562Z,26.70
2017-06-18T16:21:49.123Z,26.60
2017-06-18T16:24:16.647Z,26.50
2017-06-18T16:26:44.170Z,26.50
2017-06-18T16:29:11.714Z,26.50
2017-06-18T16:31:39.233Z,26.50
2017-06-18T16:34:06.774Z,26.50
2017-06-18T16:36:34.290Z,26.50
2017-06-18T16:39:01.834Z,26.50
2017-06-18T16:41:29.359Z,26.50
2017-06-18T16:43:56.919Z,26.40
2017-06-18T16:46:24.446Z,26.40
2017-06-18T16:48:51.972Z,26.40
2017-06-18T16:51:19.512Z,26.40
2017-06-18T16:53:47.031Z,26.40
2017-06-18T16:56:14.577Z,26.40
2017-06-18T16:58:42.099Z,26.20
2017-06-18T17:01:09.635Z,26.10
2017-06-18T17:03:37.149Z,26.00
2017-06-18T17:06:04.692Z,25.90
2017-06-18T17:08:32.215Z,25.90
2017-06-18T17:10:59.772Z,25.80
2017-06-18T17:13:27.294Z,25.60
2017-06-18T17:15:54.818Z,25.50
2017-06-18T17:18:22.358Z,25.40
2017-06-18T17:20:50.648Z,25.30
2017-06-18T17:23:18.192Z,25.30
2017-06-18T17:25:45.720Z,25.20
2017-06-18T17:28:14.030Z,25.20
2017-06-18T17:30:41.554Z,25.20
2017-06-18T17:33:09.074Z,25.20
2017-06-18T17:35:36.614Z,25.20
2017-06-18T17:38:04.139Z,25.10
2017-06-18T17:40:31.682Z,25.10
2017-06-18T17:42:59.202Z,25.10
2017-06-18T17:45:27.515Z,25.00
2017-06-18T17:47:55.036Z,25.00
2017-06-18T17:50:22.579Z,24.90
2017-06-18T17:52:50.118Z,24.70
2017-06-18T17:55:17.648Z,24.60
2017-06-18T17:57:45.195Z,24.60
2017-06-18T18:00:12.718Z,24.50
2017-06-18T18:02:40.257Z,24.40
2017-06-18T18:05:07.782Z,24.30
2017-06-18T18:07:36.108Z,24.00
2017-06-18T18:10:03.627Z,24.00
2017-06-18T18:12:31.145Z,23.90
2017-06-18T18:14:59.450Z,23.80
2017-06-18T18:17:27.737Z,23.80
2017-06-18T18:19:55.280Z,23.70
2017-06-18T18:22:22.799Z,23.70
2017-06-18T18:24:51.123Z,23.70
2017-06-18T18:27:18.652Z,23.70
2017-06-18T18:29:46.179Z,23.60
2017-06-18T18:32:13.719Z,23.60
2017-06-18T18:34:41.235Z,23.50
2017-06-18T18:37:09.567Z,23.40
2017-06-18T18:39:37.086Z,23.40
2017-06-18T18:42:07.746Z,23.30
2017-06-18T18:44:38.111Z,23.20
2017-06-18T18:47:05.686Z,23.10
2017-06-18T18:49:33.292Z,23.00
2017-06-18T18:52:01.679Z,22.80
2017-06-18T18:54:30.038Z,22.70
2017-06-18T18:56:57.559Z,22.70
2017-06-18T18:59:25.103Z,22.70
2017-06-18T19:01:52.655Z,22.50
2017-06-18T19:04:20.194Z,22.40
2017-06-18T19:06:47.715Z,22.30
2017-06-18T19:09:15.256Z,22.20
2017-06-18T19:11:42.779Z,22.10
2017-06-18T19:14:10.392Z,22.10
2017-06-18T19:16:37.919Z,21.90
2017-06-18T19:19:05.447Z,21.60
2017-06-18T19:21:32.991Z,21.40
2017-06-18T19:24:00.515Z,21.10
2017-06-18T19:26:28.060Z,20.90
2017-06-18T19:28:55.590Z,20.70
2017-06-18T19:31:23.138Z,20.60
2017-06-18T19:33:50.667Z,20.50
2017-06-18T19:36:18.211Z,20.50
2017-06-18T19:38:45.733Z,20.40
2017-06-18T19:41:14.054Z,20.20
2017-06-18T19:43:41.579Z,20.10
2017-06-18T19:46:09.097Z,20.00
2017-06-18T19:48:37.405Z,19.80
2017-06-18T19:51:04.930Z,19.80
2017-06-18T19:53:32.475Z,19.70
2017-06-18T19:56:00.001Z,19.60
2017-06-18T19:58:27.542Z,19.30
2017-06-18T20:00:55.063Z,19.10
2017-06-18T20:03:22.607Z,18.70
2017-06-18T20:05:50.164Z,18.40
2017-06-18T20:08:17.734Z,18.10
2017-06-18T20:10:45.276Z,18.00
2017-06-18T20:13:12.798Z,18.10
2017-06-18T20:15:40.342Z,18.10
2017-06-18T20:18:08.632Z,18.30
2017-06-18T20:20:36.178Z,18.30
2017-06-18T20:23:03.698Z,18.40
2017-06-18T20:25:31.240Z,18.40
2017-06-18T20:27:58.767Z,18.50
2017-06-18T20:30:26.314Z,18.50
2017-06-18T20:32:53.845Z,18.50
2017-06-18T20:35:21.391Z,18.40
2017-06-18T20:37:48.934Z,18.30
2017-06-18T20:40:17.228Z,18.10
2017-06-18T20:42:44.770Z,18.20
2017-06-18T20:45:13.064Z,18.10
2017-06-18T20:47:41.368Z,18.10
2017-06-18T20:50:09.659Z,18.10
2017-06-18T20:52:37.203Z,18.10
2017-06-18T20:55:04.726Z,18.10
2017-06-18T20:57:32.250Z,18.00
2017-06-18T20:59:59.794Z,17.90
2017-06-18T21:02:27.319Z,17.60
2017-06-18T21:04:55.623Z,17.30
2017-06-18T21:07:23.146Z,17.30
2017-06-18T21:09:50.694Z,17.20
2017-06-18T21:12:18.218Z,17.20
2017-06-18T21:14:45.776Z,17.10
2017-06-18T21:17:13.296Z,17.20
2017-06-18T21:19:41.586Z,17.20
2017-06-18T21:22:09.126Z,17.20
2017-06-18T21:24:37.410Z,17.20
2017-06-18T21:27:04.951Z,17.20
2017-06-18T21:29:32.474Z,17.10
2017-06-18T21:32:00.014Z,17.10
2017-06-18T21:34:27.542Z,17.00
2017-06-18T21:36:55.084Z,16.90
2017-06-18T21:39:22.607Z,16.90
2017-06-18T21:41:50.936Z,16.80
2017-06-18T21:44:19.223Z,16.80
2017-06-18T21:46:46.783Z,16.70
2017-06-18T21:49:14.330Z,16.70
2017-06-18T21:51:41.854Z,16.70
2017-06-18T21:54:09.391Z,16.70
2017-06-18T21:56:36.919Z,16.40
2017-06-18T21:59:05.228Z,15.80
2017-06-18T22:01:33.510Z,15.70
2017-06-18T22:04:01.824Z,15.70
2017-06-18T22:06:29.351Z,15.70
2017-06-18T22:08:56.907Z,15.80
2017-06-18T22:11:24.430Z,15.80
2017-06-18T22:13:51.949Z,15.90
2017-06-18T22:16:19.482Z,15.90
2017-06-18T22:18:47.003Z,15.80
2017-06-18T22:21:15.311Z,15.90
2017-06-18T22:23:42.854Z,15.80
2017-06-18T22:26:10.399Z,15.90
2017-06-18T22:28:38.686Z,15.90
2017-06-18T22:31:07.007Z,15.70
2017-06-18T22:33:34.531Z,15.70
2017-06-18T22:36:02.051Z,15.50
2017-06-18T22:38:29.590Z,15.30
2017-06-18T22:40:57.111Z,15.30
2017-06-18T22:43:24.654Z,15.30
2017-06-18T22:45:52.178Z,15.20
2017-06-18T22:48:19.715Z,15.00
2017-06-18T22:50:48.003Z,14.70
2017-06-18T22:53:15.551Z,14.70
2017-06-18T22:55:43.077Z,14.60
2017-06-18T22:58:10.594Z,14.50
2017-06-18T23:00:38.138Z,14.60
2017-06-18T23:03:05.659Z,14.60
2017-06-18T23:05:33.970Z,14.50
2017-06-18T23:08:01.496Z,14.50
2017-06-18T23:10:29.800Z,14.60
2017-06-18T23:12:57.326Z,14.50
2017-06-18T23:15:25.632Z,14.60
2017-06-18T23:17:53.151Z,14.50
2017-06-18T23:20:20.703Z,14.50
2017-06-18T23:22:48.228Z,14.40
2017-06-18T23:25:16.515Z,14.40
2017-06-18T23:27:44.055Z,14.30
2017-06-18T23:30:11.575Z,14.30
2017-06-18T23:32:39.115Z,14.10
2017-06-18T23:35:07.404Z,14.10
2017-06-18T23:37:35.707Z,14.10
2017-06-18T23:40:03.227Z,14.00
2017-06-18T23:42:30.780Z,14.10
2017-06-18T23:44:58.298Z,14.00
2017-06-18T23:47:25.822Z,14.00
2017-06-18T23:49:53.357Z,13.90
2017-06-18T23:52:20.875Z,13.90
2017-06-18T23:54:48.418Z,13.90
2017-06-18T23:57:15.934Z,13.90
2017-06-18T23:59:44.242Z,14.00
